Time,TemperatureF,DewpointF,PressureIn,WindDirection,WindDirectionDegrees,WindSpeedMPH,WindSpeedGustMPH,Humidity,HourlyPrecipIn,Conditions,Clouds,dailyrainin,SoftwareType,DateUTC
2013-10-10 00:04:00,56.1,48.4,30.01,North,5,0.0,1.0,75,0.00,,,0.00,meteohub,2013-10-10 05:04:00,
2013-10-10 00:09:00,56.1,48.4,30.01,North,0,0.0,1.0,75,0.00,,,0.00,meteohub,2013-10-10 05:09:00,
2013-10-10 00:14:00,55.9,48.2,30.01,North,0,0.0,1.0,75,0.00,,,0.00,meteohub,2013-10-10 05:14:00,
2013-10-10 00:20:00,55.9,48.2,30.01,North,0,0.0,0.0,75,0.00,,,0.00,meteohub,2013-10-10 05:20:00,
2013-10-10 00:25:00,55.8,48.0,30.01,North,5,0.0,0.0,75,0.00,,,0.00,meteohub,2013-10-10 05:25:00,
2013-10-10 00:30:00,55.8,48.0,30.01,North,5,0.0,0.0,75,0.00,,,0.00,meteohub,2013-10-10 05:30:00,
2013-10-10 00:35:00,55.8,48.4,30.01,North,0,0.0,0.0,76,0.00,,,0.00,meteohub,2013-10-10 05:35:00,
2013-10-10 00:40:00,55.6,48.2,30.01,North,5,0.0,0.0,76,0.00,,,0.00,meteohub,2013-10-10 05:40:00,
2013-10-10 00:45:00,55.6,48.2,30.01,North,5,0.0,0.0,76,0.00,,,0.00,meteohub,2013-10-10 05:45:00,
2013-10-10 00:50:00,55.2,47.8,30.01,North,5,0.0,0.0,76,0.00,,,0.00,meteohub,2013-10-10 05:50:00,
2013-10-10 00:55:00,55.2,47.8,30.01,North,5,0.0,0.0,76,0.00,,,0.00,meteohub,2013-10-10 05:55:00,
2013-10-10 01:00:00,55.0,47.7,30.01,North,5,0.0,0.0,76,0.00,,,0.00,meteohub,2013-10-10 06:00:00,
2013-10-10 01:05:00,55.0,47.7,30.01,North,0,0.0,0.0,76,0.00,,,0.00,meteohub,2013-10-10 06:05:00,
2013-10-10 01:10:00,55.0,47.7,30.01,North,5,0.0,0.0,76,0.00,,,0.00,meteohub,2013-10-10 06:10:00,
2013-10-10 01:16:00,54.9,47.5,30.01,North,5,0.0,0.0,76,0.00,,,0.00,meteohub,2013-10-10 06:16:00,
2013-10-10 01:21:00,54.9,47.5,30.01,North,0,0.0,0.0,76,0.00,,,0.00,meteohub,2013-10-10 06:21:00,
2013-10-10 01:26:00,54.7,47.3,30.01,North,0,0.0,0.0,76,0.00,,,0.00,meteohub,2013-10-10 06:26:00,
2013-10-10 01:31:00,54.7,47.7,30.01,North,5,0.0,0.0,77,0.00,,,0.00,meteohub,2013-10-10 06:31:00,
2013-10-10 01:36:00,54.5,47.5,30.01,North,5,0.0,0.0,77,0.00,,,0.00,meteohub,2013-10-10 06:36:00,
2013-10-10 01:41:00,54.3,47.3,30.01,North,0,0.0,0.0,77,0.00,,,0.00,meteohub,2013-10-10 06:41:00,
2013-10-10 01:46:00,54.1,47.1,30.01,North,0,0.0,0.0,77,0.00,,,0.00,meteohub,2013-10-10 06:46:00,
2013-10-10 01:51:00,54.1,47.1,30.01,North,5,0.0,0.0,77,0.00,,,0.00,meteohub,2013-10-10 06:51:00,
2013-10-10 01:56:00,54.0,46.9,30.01,North,0,0.0,0.0,77,0.00,,,0.00,meteohub,2013-10-10 06:56:00,
2013-10-10 02:01:00,53.8,46.8,30.01,North,5,0.0,0.0,77,0.00,,,0.00,meteohub,2013-10-10 07:01:00,
2013-10-10 02:06:00,53.6,46.6,30.01,North,5,0.0,0.0,77,0.00,,,0.00,meteohub,2013-10-10 07:06:00,
2013-10-10 02:11:00,53.4,46.4,30.01,North,0,0.0,0.0,77,0.00,,,0.00,meteohub,2013-10-10 07:11:00,
2013-10-10 02:16:00,53.2,46.6,30.01,North,5,0.0,0.0,78,0.00,,,0.00,meteohub,2013-10-10 07:16:00,
2013-10-10 02:21:00,53.1,46.4,30.01,North,5,0.0,0.0,78,0.00,,,0.00,meteohub,2013-10-10 07:21:00,
2013-10-10 02:27:00,53.1,46.4,30.01,North,5,0.0,0.0,78,0.00,,,0.00,meteohub,2013-10-10 07:27:00,
2013-10-10 02:32:00,52.9,46.2,30.01,North,5,0.0,0.0,78,0.00,,,0.00,meteohub,2013-10-10 07:32:00,
2013-10-10 02:37:00,52.5,45.9,30.01,North,5,0.0,0.0,78,0.00,,,0.00,meteohub,2013-10-10 07:37:00,
2013-10-10 02:42:00,52.5,46.2,30.01,North,0,0.0,0.0,79,0.00,,,0.00,meteohub,2013-10-10 07:42:00,
2013-10-10 02:47:00,52.3,46.0,30.01,North,0,0.0,0.0,79,0.00,,,0.00,meteohub,2013-10-10 07:47:00,
2013-10-10 02:52:00,52.2,45.9,30.01,North,5,0.0,0.0,79,0.00,,,0.00,meteohub,2013-10-10 07:52:00,
2013-10-10 02:57:00,52.0,46.0,30.01,North,5,0.0,0.0,80,0.00,,,0.00,meteohub,2013-10-10 07:57:00,
2013-10-10 03:02:00,51.8,45.9,30.01,North,5,0.0,0.0,80,0.00,,,0.00,meteohub,2013-10-10 08:02:00,
2013-10-10 03:07:00,51.6,45.7,30.01,North,0,0.0,0.0,80,0.00,,,0.00,meteohub,2013-10-10 08:07:00,
2013-10-10 03:12:00,51.4,45.9,30.01,North,5,0.0,0.0,81,0.00,,,0.00,meteohub,2013-10-10 08:12:00,
2013-10-10 03:17:00,51.3,45.7,30.01,North,5,0.0,0.0,81,0.00,,,0.00,meteohub,2013-10-10 08:17:00,
2013-10-10 03:22:00,51.1,45.5,30.01,North,0,0.0,0.0,81,0.00,,,0.00,meteohub,2013-10-10 08:22:00,
2013-10-10 03:27:00,50.9,45.3,30.01,North,5,0.0,0.0,81,0.00,,,0.00,meteohub,2013-10-10 08:27:00,
2013-10-10 03:32:00,50.7,45.5,30.01,North,5,0.0,0.0,82,0.00,,,0.00,meteohub,2013-10-10 08:32:00,
2013-10-10 03:37:00,50.7,45.5,30.00,North,5,0.0,0.0,82,0.00,,,0.00,meteohub,2013-10-10 08:37:00,
2013-10-10 03:42:00,50.5,45.3,30.00,North,0,0.0,0.0,82,0.00,,,0.00,meteohub,2013-10-10 08:42:00,
2013-10-10 03:47:00,50.5,45.3,30.00,North,5,0.0,0.0,82,0.00,,,0.00,meteohub,2013-10-10 08:47:00,
2013-10-10 03:52:00,50.4,45.1,30.00,North,0,0.0,0.0,82,0.00,,,0.00,meteohub,2013-10-10 08:52:00,
2013-10-10 03:57:00,50.4,45.1,30.00,North,0,0.0,0.0,82,0.00,,,0.00,meteohub,2013-10-10 08:57:00,
2013-10-10 04:02:00,50.2,45.1,30.00,North,0,0.0,0.0,83,0.00,,,0.00,meteohub,2013-10-10 09:02:00,
2013-10-10 04:07:00,50.2,45.1,30.01,North,5,0.0,0.0,83,0.00,,,0.00,meteohub,2013-10-10 09:07:00,
2013-10-10 04:12:00,50.2,45.1,30.00,North,5,0.0,0.0,83,0.00,,,0.00,meteohub,2013-10-10 09:12:00,
2013-10-10 04:17:00,50.0,45.0,30.01,North,5,0.0,0.0,83,0.00,,,0.00,meteohub,2013-10-10 09:17:00,
2013-10-10 04:22:00,49.8,45.1,30.00,North,0,0.0,0.0,84,0.00,,,0.00,meteohub,2013-10-10 09:22:00,
2013-10-10 04:27:00,49.8,45.1,30.00,North,5,0.0,0.0,84,0.00,,,0.00,meteohub,2013-10-10 09:27:00,
2013-10-10 04:32:00,49.8,45.1,30.00,North,0,0.0,0.0,84,0.00,,,0.00,meteohub,2013-10-10 09:32:00,
2013-10-10 04:37:00,49.6,45.0,30.01,North,0,0.0,0.0,84,0.00,,,0.00,meteohub,2013-10-10 09:37:00,
2013-10-10 04:42:00,49.6,45.0,30.00,North,5,0.0,0.0,84,0.00,,,0.00,meteohub,2013-10-10 09:42:00,
2013-10-10 04:47:00,49.6,45.0,30.00,North,5,0.0,0.0,84,0.00,,,0.00,meteohub,2013-10-10 09:47:00,
2013-10-10 04:52:00,49.5,44.8,30.00,North,5,0.0,0.0,84,0.00,,,0.00,meteohub,2013-10-10 09:52:00,
2013-10-10 04:57:00,49.5,44.8,30.01,North,0,0.0,0.0,84,0.00,,,0.00,meteohub,2013-10-10 09:57:00,
2013-10-10 05:02:00,49.3,44.6,30.01,North,5,0.0,0.0,84,0.00,,,0.00,meteohub,2013-10-10 10:02:00,
2013-10-10 05:07:00,49.3,44.6,30.01,North,5,0.0,0.0,84,0.00,,,0.00,meteohub,2013-10-10 10:07:00,
2013-10-10 05:12:00,49.3,45.0,30.01,North,5,0.0,0.0,85,0.00,,,0.00,meteohub,2013-10-10 10:12:00,
2013-10-10 05:17:00,49.1,44.8,30.01,North,0,0.0,0.0,85,0.00,,,0.00,meteohub,2013-10-10 10:17:00,
2013-10-10 05:22:00,48.9,44.6,30.01,North,5,0.0,0.0,85,0.00,,,0.00,meteohub,2013-10-10 10:22:00,
2013-10-10 05:27:00,48.9,44.6,30.01,North,5,0.0,0.0,85,0.00,,,0.00,meteohub,2013-10-10 10:27:00,
2013-10-10 05:32:00,48.9,44.6,30.01,North,0,0.0,0.0,85,0.00,,,0.00,meteohub,2013-10-10 10:32:00,
2013-10-10 05:37:00,48.7,44.4,30.00,North,5,0.0,0.0,85,0.00,,,0.00,meteohub,2013-10-10 10:37:00,
2013-10-10 05:42:00,48.7,44.4,30.00,North,5,0.0,0.0,85,0.00,,,0.00,meteohub,2013-10-10 10:42:00,
2013-10-10 05:47:00,48.7,44.8,30.00,North,5,0.0,0.0,86,0.00,,,0.00,meteohub,2013-10-10 10:47:00,
2013-10-10 05:52:00,48.7,44.8,30.00,North,5,0.0,0.0,86,0.00,,,0.00,meteohub,2013-10-10 10:52:00,
2013-10-10 05:57:00,48.7,44.8,30.00,North,5,0.0,0.0,86,0.00,,,0.00,meteohub,2013-10-10 10:57:00,
2013-10-10 06:02:00,48.7,44.8,30.00,North,5,0.0,0.0,86,0.00,,,0.00,meteohub,2013-10-10 11:02:00,
2013-10-10 06:07:00,48.6,44.6,30.00,North,0,0.0,0.0,86,0.00,,,0.00,meteohub,2013-10-10 11:07:00,
2013-10-10 06:12:00,48.6,44.6,30.00,North,0,0.0,0.0,86,0.00,,,0.00,meteohub,2013-10-10 11:12:00,
2013-10-10 06:17:00,48.6,44.6,30.00,North,5,0.0,0.0,86,0.00,,,0.00,meteohub,2013-10-10 11:17:00,
2013-10-10 06:22:00,48.6,44.6,30.00,North,5,0.0,0.0,86,0.00,,,0.00,meteohub,2013-10-10 11:22:00,
2013-10-10 06:27:00,48.6,44.6,30.00,North,5,0.0,0.0,86,0.00,,,0.00,meteohub,2013-10-10 11:27:00,
2013-10-10 06:32:00,48.6,44.6,30.00,North,0,0.0,0.0,86,0.00,,,0.00,meteohub,2013-10-10 11:32:00,
2013-10-10 06:37:00,48.4,44.4,30.00,North,5,0.0,0.0,86,0.00,,,0.00,meteohub,2013-10-10 11:37:00,
2013-10-10 06:42:00,48.4,44.8,30.00,North,0,0.0,0.0,87,0.00,,,0.00,meteohub,2013-10-10 11:42:00,
2013-10-10 06:47:00,48.4,44.8,30.00,North,0,0.0,0.0,87,0.00,,,0.00,meteohub,2013-10-10 11:47:00,
2013-10-10 06:52:00,48.4,44.8,30.00,North,5,0.0,0.0,87,0.00,,,0.00,meteohub,2013-10-10 11:52:00,
2013-10-10 06:57:00,48.4,44.8,30.00,North,5,0.0,0.0,87,0.00,,,0.00,meteohub,2013-10-10 11:57:00,
2013-10-10 07:02:00,48.6,44.8,29.99,North,5,0.0,0.0,87,0.00,,,0.00,meteohub,2013-10-10 12:02:00,
2013-10-10 07:07:00,48.6,44.8,30.00,North,0,0.0,0.0,87,0.00,,,0.00,meteohub,2013-10-10 12:07:00,
2013-10-10 07:12:00,48.7,45.0,30.00,North,5,0.0,0.0,87,0.00,,,0.00,meteohub,2013-10-10 12:12:00,
2013-10-10 07:17:00,48.9,45.1,30.00,North,5,0.0,0.0,87,0.00,,,0.00,meteohub,2013-10-10 12:17:00,
2013-10-10 07:22:00,49.1,45.3,30.00,North,0,0.0,0.0,87,0.00,,,0.00,meteohub,2013-10-10 12:22:00,
2013-10-10 07:27:00,49.5,45.7,29.99,North,0,0.0,0.0,87,0.00,,,0.00,meteohub,2013-10-10 12:27:00,
2013-10-10 07:32:00,49.5,45.7,29.99,North,5,0.0,0.0,87,0.00,,,0.00,meteohub,2013-10-10 12:32:00,
2013-10-10 07:37:00,49.8,46.0,29.99,North,5,0.0,0.0,87,0.00,,,0.00,meteohub,2013-10-10 12:37:00,
2013-10-10 07:42:00,49.8,46.0,30.00,North,5,0.0,0.0,87,0.00,,,0.00,meteohub,2013-10-10 12:42:00,
2013-10-10 07:47:00,50.4,46.6,30.00,North,0,0.0,0.0,87,0.00,,,0.00,meteohub,2013-10-10 12:47:00,
2013-10-10 07:52:00,50.4,46.6,30.00,North,5,0.0,0.0,87,0.00,,,0.00,meteohub,2013-10-10 12:52:00,
2013-10-10 07:57:00,50.5,46.8,30.00,North,5,0.0,0.0,87,0.00,,,0.00,meteohub,2013-10-10 12:57:00,
2013-10-10 08:02:00,50.5,46.6,30.00,North,5,0.0,0.0,86,0.00,,,0.00,meteohub,2013-10-10 13:02:00,
2013-10-10 08:07:00,50.7,46.8,30.00,North,0,0.0,0.0,86,0.00,,,0.00,meteohub,2013-10-10 13:07:00,
2013-10-10 08:12:00,50.9,46.9,30.00,North,5,0.0,0.0,86,0.00,,,0.00,meteohub,2013-10-10 13:12:00,
2013-10-10 08:17:00,51.1,47.1,30.00,North,5,0.0,0.0,86,0.00,,,0.00,meteohub,2013-10-10 13:17:00,
2013-10-10 08:22:00,51.1,47.1,30.00,North,5,0.0,0.0,86,0.00,,,0.00,meteohub,2013-10-10 13:22:00,
2013-10-10 08:27:00,51.3,46.9,30.00,North,5,0.0,0.0,85,0.00,,,0.00,meteohub,2013-10-10 13:27:00,
2013-10-10 08:32:00,51.4,47.1,30.00,North,5,0.0,0.0,85,0.00,,,0.00,meteohub,2013-10-10 13:32:00,
2013-10-10 08:37:00,51.4,47.1,30.00,North,5,0.0,0.0,85,0.00,,,0.00,meteohub,2013-10-10 13:37:00,
2013-10-10 08:42:00,51.6,47.3,29.99,North,0,0.0,0.0,85,0.00,,,0.00,meteohub,2013-10-10 13:42:00,
2013-10-10 08:47:00,52.0,47.7,30.00,North,5,0.0,0.0,85,0.00,,,0.00,meteohub,2013-10-10 13:47:00,
2013-10-10 08:52:00,52.2,47.5,30.00,North,5,0.0,0.0,84,0.00,,,0.00,meteohub,2013-10-10 13:52:00,
2013-10-10 08:57:00,52.2,47.5,30.00,North,0,0.0,0.0,84,0.00,,,0.00,meteohub,2013-10-10 13:57:00,
2013-10-10 09:02:00,52.5,47.8,29.99,ESE,118,1.0,0.0,84,0.00,,,0.00,meteohub,2013-10-10 14:02:00,
2013-10-10 09:07:00,52.7,48.0,29.99,ESE,119,0.0,2.0,84,0.00,,,0.00,meteohub,2013-10-10 14:07:00,
2013-10-10 09:12:00,53.1,48.4,29.99,ESE,119,0.0,2.0,84,0.00,,,0.00,meteohub,2013-10-10 14:12:00,
2013-10-10 09:17:00,53.2,48.6,29.99,ESE,119,0.0,1.0,84,0.00,,,0.00,meteohub,2013-10-10 14:17:00,
2013-10-10 09:22:00,53.4,48.4,29.99,ESE,118,0.0,1.0,83,0.00,,,0.00,meteohub,2013-10-10 14:22:00,
2013-10-10 09:27:00,53.8,48.7,29.99,ESE,119,0.0,1.0,83,0.00,,,0.00,meteohub,2013-10-10 14:27:00,
2013-10-10 09:32:00,54.1,49.1,29.99,ESE,110,0.0,1.0,83,0.00,,,0.00,meteohub,2013-10-10 14:32:00,
2013-10-10 09:37:00,54.3,49.3,29.99,ESE,110,0.0,1.0,83,0.00,,,0.00,meteohub,2013-10-10 14:37:00,
2013-10-10 09:42:00,54.7,49.3,29.99,ESE,106,0.0,1.0,82,0.00,,,0.00,meteohub,2013-10-10 14:42:00,
2013-10-10 09:47:00,54.9,49.5,29.99,ESE,105,0.0,1.0,82,0.00,,,0.00,meteohub,2013-10-10 14:47:00,
2013-10-10 09:52:00,55.0,49.6,29.99,ESE,106,0.0,1.0,82,0.00,,,0.00,meteohub,2013-10-10 14:52:00,
2013-10-10 09:57:00,55.6,49.8,29.98,WNW,291,0.0,5.0,81,0.00,,,0.00,meteohub,2013-10-10 14:57:00,
2013-10-10 10:02:00,55.8,50.0,29.99,WNW,292,0.0,5.0,81,0.00,,,0.00,meteohub,2013-10-10 15:02:00,
2013-10-10 10:07:00,56.1,50.4,29.99,WNW,292,1.0,5.0,81,0.00,,,0.00,meteohub,2013-10-10 15:07:00,
2013-10-10 10:12:00,56.5,50.4,29.99,WNW,291,0.0,1.0,80,0.00,,,0.00,meteohub,2013-10-10 15:12:00,
2013-10-10 10:17:00,56.8,50.7,29.99,WNW,290,0.0,1.0,80,0.00,,,0.00,meteohub,2013-10-10 15:17:00,
2013-10-10 10:22:00,57.2,51.1,29.99,WNW,290,0.0,1.0,80,0.00,,,0.00,meteohub,2013-10-10 15:22:00,
2013-10-10 10:27:00,57.7,51.3,29.98,NW,323,0.0,1.0,79,0.00,,,0.00,meteohub,2013-10-10 15:27:00,
2013-10-10 10:32:00,58.3,51.4,29.98,WNW,300,0.0,4.0,78,0.00,,,0.00,meteohub,2013-10-10 15:32:00,
2013-10-10 10:37:00,58.8,52.0,29.98,WNW,298,0.0,4.0,78,0.00,,,0.00,meteohub,2013-10-10 15:37:00,
2013-10-10 10:42:00,59.0,51.8,29.98,WNW,298,0.0,4.0,77,0.00,,,0.00,meteohub,2013-10-10 15:42:00,
2013-10-10 10:47:00,59.5,52.3,29.98,WNW,299,0.0,3.0,77,0.00,,,0.00,meteohub,2013-10-10 15:47:00,
2013-10-10 10:52:00,60.1,52.5,29.97,WNW,298,0.0,2.0,76,0.00,,,0.00,meteohub,2013-10-10 15:52:00,
2013-10-10 10:57:00,60.6,53.1,29.97,NW,318,0.0,3.0,76,0.00,,,0.00,meteohub,2013-10-10 15:57:00,
2013-10-10 11:02:00,61.3,53.4,29.97,West,275,0.0,3.0,75,0.00,,,0.00,meteohub,2013-10-10 16:02:00,
2013-10-10 11:07:00,61.9,53.4,29.97,North,9,0.0,3.0,74,0.00,,,0.00,meteohub,2013-10-10 16:07:00,
2013-10-10 11:12:00,62.4,53.6,29.97,ENE,57,0.0,3.0,73,0.00,,,0.00,meteohub,2013-10-10 16:12:00,
2013-10-10 11:17:00,63.0,54.1,29.97,North,0,0.0,3.0,73,0.00,,,0.00,meteohub,2013-10-10 16:17:00,
2013-10-10 11:22:00,63.7,54.1,29.96,West,275,0.0,4.0,71,0.00,,,0.00,meteohub,2013-10-10 16:22:00,
2013-10-10 11:27:00,64.2,54.3,29.96,SW,225,0.0,4.0,70,0.00,,,0.00,meteohub,2013-10-10 16:27:00,
2013-10-10 11:32:00,64.9,54.5,29.96,SW,234,0.0,4.0,69,0.00,,,0.00,meteohub,2013-10-10 16:32:00,
2013-10-10 11:37:00,65.5,55.0,29.96,SSE,168,0.0,3.0,69,0.00,,,0.00,meteohub,2013-10-10 16:37:00,
2013-10-10 11:42:00,66.0,55.2,29.96,SSE,167,0.0,3.0,68,0.00,,,0.00,meteohub,2013-10-10 16:42:00,
2013-10-10 11:47:00,66.6,55.2,29.96,SSE,167,0.0,3.0,67,0.00,,,0.00,meteohub,2013-10-10 16:47:00,
2013-10-10 11:52:00,66.9,55.2,29.95,SSW,203,0.0,3.0,66,0.00,,,0.00,meteohub,2013-10-10 16:52:00,
2013-10-10 11:57:00,67.5,55.8,29.95,SSW,196,1.0,3.0,66,0.00,,,0.00,meteohub,2013-10-10 16:57:00,
2013-10-10 12:02:00,68.2,55.6,29.95,SSW,194,2.0,7.0,64,0.00,,,0.00,meteohub,2013-10-10 17:02:00,
2013-10-10 12:07:00,68.7,56.1,29.95,WNW,292,0.0,7.0,64,0.00,,,0.00,meteohub,2013-10-10 17:07:00,
2013-10-10 12:12:00,69.3,55.8,29.94,NW,313,0.0,3.0,62,0.00,,,0.00,meteohub,2013-10-10 17:12:00,
2013-10-10 12:17:00,69.6,55.9,29.94,ENE,75,0.0,3.0,62,0.00,,,0.00,meteohub,2013-10-10 17:17:00,
2013-10-10 12:22:00,70.2,56.5,29.94,NNW,333,0.0,3.0,62,0.00,,,0.00,meteohub,2013-10-10 17:22:00,
2013-10-10 12:27:00,70.9,57.2,29.94,NW,319,0.0,4.0,62,0.00,,,0.00,meteohub,2013-10-10 17:27:00,
2013-10-10 12:32:00,71.4,57.2,29.94,NW,313,0.0,4.0,61,0.00,,,0.00,meteohub,2013-10-10 17:32:00,
2013-10-10 12:37:00,72.1,57.0,29.93,SW,229,0.0,6.0,59,0.00,,,0.00,meteohub,2013-10-10 17:37:00,
2013-10-10 12:42:00,72.9,57.2,29.93,SSE,168,0.0,6.0,58,0.00,,,0.00,meteohub,2013-10-10 17:42:00,
2013-10-10 12:47:00,73.2,57.0,29.93,SSE,153,0.0,6.0,57,0.00,,,0.00,meteohub,2013-10-10 17:47:00,
2013-10-10 12:52:00,73.9,57.2,29.93,North,5,0.0,3.0,56,0.00,,,0.00,meteohub,2013-10-10 17:52:00,
2013-10-10 12:57:00,74.5,57.2,29.93,WSW,256,0.0,4.0,55,0.00,,,0.00,meteohub,2013-10-10 17:57:00,
2013-10-10 13:02:00,75.0,57.7,29.92,South,186,0.0,4.0,55,0.00,,,0.00,meteohub,2013-10-10 18:02:00,
2013-10-10 13:07:00,75.6,58.3,29.92,West,265,1.0,4.0,55,0.00,,,0.00,meteohub,2013-10-10 18:07:00,
2013-10-10 13:12:00,75.9,58.1,29.92,SW,221,0.0,4.0,54,0.00,,,0.00,meteohub,2013-10-10 18:12:00,
2013-10-10 13:17:00,76.5,58.6,29.92,WSW,254,0.0,4.0,54,0.00,,,0.00,meteohub,2013-10-10 18:17:00,
2013-10-10 13:22:00,76.8,58.5,29.91,West,263,2.0,4.0,53,0.00,,,0.00,meteohub,2013-10-10 18:22:00,
2013-10-10 13:27:00,77.4,58.8,29.91,NNW,348,0.0,9.0,53,0.00,,,0.00,meteohub,2013-10-10 18:27:00,
2013-10-10 13:32:00,77.7,58.1,29.91,WNW,295,0.0,9.0,51,0.00,,,0.00,meteohub,2013-10-10 18:32:00,
2013-10-10 13:37:00,78.1,57.9,29.91,SSW,206,1.0,5.0,50,0.00,,,0.00,meteohub,2013-10-10 18:37:00,
2013-10-10 13:42:00,78.4,57.7,29.91,West,260,0.0,6.0,49,0.00,,,0.00,meteohub,2013-10-10 18:42:00,
2013-10-10 13:47:00,78.6,58.5,29.91,West,271,1.0,6.0,50,0.00,,,0.00,meteohub,2013-10-10 18:47:00,
2013-10-10 13:52:00,78.6,57.9,29.91,SW,219,0.0,6.0,49,0.00,,,0.00,meteohub,2013-10-10 18:52:00,
2013-10-10 13:57:00,79.2,58.3,29.91,WNW,298,0.0,6.0,49,0.00,,,0.00,meteohub,2013-10-10 18:57:00,
2013-10-10 14:02:00,79.3,57.9,29.90,NW,307,2.0,4.0,48,0.00,,,0.00,meteohub,2013-10-10 19:02:00,
2013-10-10 14:07:00,79.5,56.8,29.90,NW,306,2.0,4.0,46,0.00,,,0.00,meteohub,2013-10-10 19:07:00,
2013-10-10 14:12:00,79.5,56.8,29.90,West,279,0.0,4.0,46,0.00,,,0.00,meteohub,2013-10-10 19:12:00,
2013-10-10 14:17:00,79.7,57.0,29.90,NNW,336,2.0,8.0,46,0.00,,,0.00,meteohub,2013-10-10 19:17:00,
2013-10-10 14:22:00,79.9,57.9,29.89,WNW,296,2.0,10.0,47,0.00,,,0.00,meteohub,2013-10-10 19:22:00,
2013-10-10 14:27:00,79.9,56.7,29.89,SSW,205,0.0,10.0,45,0.00,,,0.00,meteohub,2013-10-10 19:27:00,
2013-10-10 14:32:00,80.1,57.4,29.89,NW,323,6.0,10.0,46,0.00,,,0.00,meteohub,2013-10-10 19:32:00,
2013-10-10 14:37:00,80.1,56.8,29.89,NW,326,1.0,11.0,45,0.00,,,0.00,meteohub,2013-10-10 19:37:00,
2013-10-10 14:42:00,80.1,56.8,29.89,South,182,2.0,11.0,45,0.00,,,0.00,meteohub,2013-10-10 19:42:00,
2013-10-10 14:47:00,79.9,56.7,29.89,WNW,301,0.0,11.0,45,0.00,,,0.00,meteohub,2013-10-10 19:47:00,
2013-10-10 14:52:00,79.9,55.9,29.89,SW,218,0.0,9.0,44,0.00,,,0.00,meteohub,2013-10-10 19:52:00,
2013-10-10 14:57:00,79.5,55.8,29.89,NNW,330,1.0,9.0,44,0.00,,,0.00,meteohub,2013-10-10 19:57:00,
2013-10-10 15:02:00,79.0,55.2,29.89,North,10,0.0,4.0,44,0.00,,,0.00,meteohub,2013-10-10 20:02:00,
2013-10-10 15:07:00,78.4,55.4,29.89,NW,313,0.0,2.0,45,0.00,,,0.00,meteohub,2013-10-10 20:07:00,
2013-10-10 15:12:00,78.1,55.0,29.89,WNW,291,0.0,2.0,45,0.00,,,0.00,meteohub,2013-10-10 20:12:00,
2013-10-10 15:17:00,77.9,54.9,29.89,WNW,284,0.0,3.0,45,0.00,,,0.00,meteohub,2013-10-10 20:17:00,
2013-10-10 15:22:00,77.7,55.2,29.89,WNW,301,0.0,6.0,46,0.00,,,0.00,meteohub,2013-10-10 20:22:00,
2013-10-10 15:27:00,77.5,55.0,29.89,NW,325,0.0,6.0,46,0.00,,,0.00,meteohub,2013-10-10 20:27:00,
2013-10-10 15:31:00,77.4,55.0,29.89,North,0,0.0,6.0,46,0.00,,,0.00,meteohub,2013-10-10 20:31:00,
2013-10-10 15:37:00,77.0,54.7,29.88,NNW,336,0.0,2.0,46,0.00,,,0.00,meteohub,2013-10-10 20:37:00,
2013-10-10 15:42:00,76.6,54.9,29.88,WSW,240,0.0,2.0,47,0.00,,,0.00,meteohub,2013-10-10 20:42:00,
2013-10-10 15:47:00,76.5,55.4,29.88,NNW,333,0.0,3.0,48,0.00,,,0.00,meteohub,2013-10-10 20:47:00,
2013-10-10 15:52:00,76.3,54.5,29.88,NW,315,1.0,3.0,47,0.00,,,0.00,meteohub,2013-10-10 20:52:00,
2013-10-10 15:57:00,75.9,54.3,29.88,SW,232,0.0,3.0,47,0.00,,,0.00,meteohub,2013-10-10 20:57:00,
2013-10-10 16:02:00,75.7,53.4,29.88,West,263,0.0,4.0,46,0.00,,,0.00,meteohub,2013-10-10 21:02:00,
2013-10-10 16:07:00,75.7,53.4,29.88,SSE,148,0.0,5.0,46,0.00,,,0.00,meteohub,2013-10-10 21:07:00,
2013-10-10 16:12:00,75.7,53.4,29.88,South,175,0.0,5.0,46,0.00,,,0.00,meteohub,2013-10-10 21:12:00,
2013-10-10 16:17:00,75.7,53.4,29.88,South,177,1.0,5.0,46,0.00,,,0.00,meteohub,2013-10-10 21:17:00,
2013-10-10 16:22:00,75.9,53.1,29.88,WNW,288,0.0,4.0,45,0.00,,,0.00,meteohub,2013-10-10 21:22:00,
2013-10-10 16:27:00,75.9,53.1,29.88,West,272,1.0,7.0,45,0.00,,,0.00,meteohub,2013-10-10 21:27:00,
2013-10-10 16:32:00,75.9,53.1,29.88,SSE,167,0.0,7.0,45,0.00,,,0.00,meteohub,2013-10-10 21:32:00,
2013-10-10 16:37:00,75.9,53.1,29.88,ESE,113,0.0,7.0,45,0.00,,,0.00,meteohub,2013-10-10 21:37:00,
2013-10-10 16:42:00,75.7,53.4,29.88,NW,326,0.0,4.0,46,0.00,,,0.00,meteohub,2013-10-10 21:42:00,
2013-10-10 16:47:00,75.7,53.4,29.88,NW,317,0.0,4.0,46,0.00,,,0.00,meteohub,2013-10-10 21:47:00,
2013-10-10 16:52:00,75.6,53.2,29.88,NW,312,0.0,3.0,46,0.00,,,0.00,meteohub,2013-10-10 21:52:00,
2013-10-10 16:57:00,75.4,52.5,29.88,SW,231,0.0,7.0,45,0.00,,,0.00,meteohub,2013-10-10 21:57:00,
2013-10-10 17:02:00,75.4,52.5,29.88,SW,236,0.0,8.0,45,0.00,,,0.00,meteohub,2013-10-10 22:02:00,
2013-10-10 17:07:00,75.2,53.6,29.87,West,261,1.0,8.0,47,0.00,,,0.00,meteohub,2013-10-10 22:07:00,
2013-10-10 17:12:00,75.0,53.4,29.87,NW,321,1.0,8.0,47,0.00,,,0.00,meteohub,2013-10-10 22:12:00,
2013-10-10 17:17:00,74.8,53.2,29.87,WNW,291,0.0,3.0,47,0.00,,,0.00,meteohub,2013-10-10 22:17:00,
2013-10-10 17:22:00,74.7,53.6,29.87,NNE,25,0.0,4.0,48,0.00,,,0.00,meteohub,2013-10-10 22:22:00,
2013-10-10 17:27:00,74.3,52.7,29.88,SSW,198,0.0,4.0,47,0.00,,,0.00,meteohub,2013-10-10 22:27:00,
2013-10-10 17:32:00,74.1,53.2,29.87,NW,309,0.0,4.0,48,0.00,,,0.00,meteohub,2013-10-10 22:32:00,
2013-10-10 17:37:00,73.9,53.1,29.87,NW,309,0.0,4.0,48,0.00,,,0.00,meteohub,2013-10-10 22:37:00,
2013-10-10 17:42:00,73.6,52.7,29.87,NW,326,0.0,4.0,48,0.00,,,0.00,meteohub,2013-10-10 22:42:00,
2013-10-10 17:47:00,73.2,52.3,29.87,NW,307,0.0,4.0,48,0.00,,,0.00,meteohub,2013-10-10 22:47:00,
2013-10-10 17:52:00,73.0,52.2,29.87,WNW,296,0.0,3.0,48,0.00,,,0.00,meteohub,2013-10-10 22:52:00,
2013-10-10 17:57:00,72.9,52.5,29.87,NW,321,0.0,4.0,49,0.00,,,0.00,meteohub,2013-10-10 22:57:00,
2013-10-10 18:02:00,72.7,51.8,29.87,NNW,329,0.0,4.0,48,0.00,,,0.00,meteohub,2013-10-10 23:02:00,
2013-10-10 18:07:00,72.3,52.2,29.87,NW,325,0.0,4.0,49,0.00,,,0.00,meteohub,2013-10-10 23:07:00,
2013-10-10 18:12:00,72.3,52.2,29.87,NW,324,0.0,1.0,49,0.00,,,0.00,meteohub,2013-10-10 23:12:00,
2013-10-10 18:17:00,72.1,53.1,29.87,NW,324,0.0,1.0,51,0.00,,,0.00,meteohub,2013-10-10 23:17:00,
2013-10-10 18:22:00,72.0,52.9,29.87,NW,321,0.0,3.0,51,0.00,,,0.00,meteohub,2013-10-10 23:22:00,
2013-10-10 18:27:00,71.4,52.3,29.88,WSW,257,0.0,3.0,51,0.00,,,0.00,meteohub,2013-10-10 23:27:00,
2013-10-10 18:32:00,71.2,51.6,29.88,NE,40,0.0,3.0,50,0.00,,,0.00,meteohub,2013-10-10 23:32:00,
2013-10-10 18:37:00,71.1,52.0,29.88,NE,40,0.0,2.0,51,0.00,,,0.00,meteohub,2013-10-10 23:37:00,
2013-10-10 18:42:00,70.9,51.8,29.87,NE,40,0.0,2.0,51,0.00,,,0.00,meteohub,2013-10-10 23:42:00,
2013-10-10 18:47:00,70.5,51.4,29.88,NW,311,0.0,1.0,51,0.00,,,0.00,meteohub,2013-10-10 23:47:00,
2013-10-10 18:52:00,70.3,51.8,29.88,NW,310,0.0,1.0,52,0.00,,,0.00,meteohub,2013-10-10 23:52:00,
2013-10-10 18:57:00,70.2,51.8,29.88,NW,310,0.0,1.0,52,0.00,,,0.00,meteohub,2013-10-10 23:57:00,
2013-10-10 19:02:00,70.0,52.0,29.88,NW,309,0.0,1.0,53,0.00,,,0.00,meteohub,2013-10-11 00:02:00,
2013-10-10 19:07:00,69.8,52.0,29.88,NW,309,0.0,1.0,53,0.00,,,0.00,meteohub,2013-10-11 00:07:00,
2013-10-10 19:12:00,69.6,52.2,29.88,NW,309,0.0,1.0,54,0.00,,,0.00,meteohub,2013-10-11 00:12:00,
2013-10-10 19:17:00,69.3,52.3,29.88,NW,309,0.0,1.0,55,0.00,,,0.00,meteohub,2013-10-11 00:17:00,
2013-10-10 19:22:00,68.9,52.5,29.88,NW,309,0.0,0.0,56,0.00,,,0.00,meteohub,2013-10-11 00:22:00,
2013-10-10 19:27:00,68.5,52.2,29.88,NW,309,0.0,0.0,56,0.00,,,0.00,meteohub,2013-10-11 00:27:00,
2013-10-10 19:32:00,68.2,51.8,29.88,NW,309,0.0,1.0,56,0.00,,,0.00,meteohub,2013-10-11 00:32:00,
2013-10-10 19:37:00,67.8,52.0,29.88,WNW,303,0.0,1.0,57,0.00,,,0.00,meteohub,2013-10-11 00:37:00,
2013-10-10 19:42:00,67.5,51.6,29.88,NW,304,0.0,1.0,57,0.00,,,0.00,meteohub,2013-10-11 00:42:00,
2013-10-10 19:47:00,67.3,52.0,29.88,WNW,303,0.0,1.0,58,0.00,,,0.00,meteohub,2013-10-11 00:47:00,
2013-10-10 19:52:00,67.1,51.8,29.88,WNW,303,0.0,1.0,58,0.00,,,0.00,meteohub,2013-10-11 00:52:00,
2013-10-10 19:57:00,66.9,51.6,29.88,NW,304,0.0,0.0,58,0.00,,,0.00,meteohub,2013-10-11 00:57:00,
2013-10-10 20:02:00,66.7,52.0,29.88,NW,304,0.0,0.0,59,0.00,,,0.00,meteohub,2013-10-11 01:02:00,
2013-10-10 20:07:00,66.6,51.8,29.88,WNW,289,0.0,1.0,59,0.00,,,0.00,meteohub,2013-10-11 01:07:00,
2013-10-10 20:12:00,66.4,52.2,29.88,WNW,288,0.0,1.0,60,0.00,,,0.00,meteohub,2013-10-11 01:12:00,
2013-10-10 20:17:00,66.4,52.2,29.88,WNW,289,0.0,1.0,60,0.00,,,0.00,meteohub,2013-10-11 01:17:00,
2013-10-10 20:22:00,66.2,52.0,29.88,WNW,288,0.0,1.0,60,0.00,,,0.00,meteohub,2013-10-11 01:22:00,
2013-10-10 20:27:00,66.0,52.2,29.88,WNW,288,0.0,1.0,61,0.00,,,0.00,meteohub,2013-10-11 01:27:00,
2013-10-10 20:32:00,66.0,52.2,29.88,WNW,289,0.0,0.0,61,0.00,,,0.00,meteohub,2013-10-11 01:32:00,
2013-10-10 20:37:00,65.8,52.0,29.88,WNW,288,0.0,1.0,61,0.00,,,0.00,meteohub,2013-10-11 01:37:00,
2013-10-10 20:42:00,65.8,52.0,29.88,WNW,287,0.0,1.0,61,0.00,,,0.00,meteohub,2013-10-11 01:42:00,
2013-10-10 20:47:00,65.8,52.5,29.88,WNW,287,0.0,1.0,62,0.00,,,0.00,meteohub,2013-10-11 01:47:00,
2013-10-10 20:52:00,65.7,52.3,29.88,West,274,0.0,0.0,62,0.00,,,0.00,meteohub,2013-10-11 01:52:00,
2013-10-10 20:57:00,65.7,52.3,29.88,West,275,0.0,0.0,62,0.00,,,0.00,meteohub,2013-10-11 01:57:00,
2013-10-10 21:02:00,65.5,52.2,29.88,West,274,0.0,0.0,62,0.00,,,0.00,meteohub,2013-10-11 02:02:00,
2013-10-10 21:07:00,65.5,52.2,29.88,West,272,0.0,0.0,62,0.00,,,0.00,meteohub,2013-10-11 02:07:00,
2013-10-10 21:12:00,65.3,52.0,29.88,West,272,0.0,2.0,62,0.00,,,0.00,meteohub,2013-10-11 02:12:00,
2013-10-10 21:17:00,65.1,52.2,29.88,West,271,0.0,2.0,63,0.00,,,0.00,meteohub,2013-10-11 02:17:00,
2013-10-10 21:22:00,65.1,52.2,29.88,West,271,0.0,1.0,63,0.00,,,0.00,meteohub,2013-10-11 02:22:00,
2013-10-10 21:27:00,64.9,52.0,29.88,West,271,0.0,1.0,63,0.00,,,0.00,meteohub,2013-10-11 02:27:00,
2013-10-10 21:32:00,64.8,51.8,29.88,West,271,0.0,1.0,63,0.00,,,0.00,meteohub,2013-10-11 02:32:00,
2013-10-10 21:37:00,64.8,52.3,29.88,West,271,0.0,1.0,64,0.00,,,0.00,meteohub,2013-10-11 02:37:00,
2013-10-10 21:42:00,64.6,52.2,29.88,West,271,0.0,1.0,64,0.00,,,0.00,meteohub,2013-10-11 02:42:00,
2013-10-10 21:47:00,64.2,51.8,29.87,West,271,0.0,1.0,64,0.00,,,0.00,meteohub,2013-10-11 02:47:00,
2013-10-10 21:52:00,64.2,51.8,29.87,West,271,0.0,1.0,64,0.00,,,0.00,meteohub,2013-10-11 02:52:00,
2013-10-10 21:57:00,64.0,52.0,29.88,West,271,0.0,1.0,65,0.00,,,0.00,meteohub,2013-10-11 02:57:00,
2013-10-10 22:02:00,63.9,51.8,29.88,West,271,0.0,1.0,65,0.00,,,0.00,meteohub,2013-10-11 03:02:00,
2013-10-10 22:07:00,63.9,51.8,29.87,West,271,0.0,1.0,65,0.00,,,0.00,meteohub,2013-10-11 03:07:00,
2013-10-10 22:12:00,63.7,52.2,29.87,West,271,0.0,1.0,66,0.00,,,0.00,meteohub,2013-10-11 03:12:00,
2013-10-10 22:17:00,63.7,52.2,29.87,West,270,0.0,1.0,66,0.00,,,0.00,meteohub,2013-10-11 03:17:00,
2013-10-10 22:22:00,63.3,51.8,29.87,West,268,0.0,1.0,66,0.00,,,0.00,meteohub,2013-10-11 03:22:00,
2013-10-10 22:27:00,63.3,52.2,29.87,West,268,0.0,2.0,67,0.00,,,0.00,meteohub,2013-10-11 03:27:00,
2013-10-10 22:32:00,63.1,52.0,29.87,West,268,0.0,2.0,67,0.00,,,0.00,meteohub,2013-10-11 03:32:00,
2013-10-10 22:37:00,63.1,52.0,29.87,West,267,0.0,2.0,67,0.00,,,0.00,meteohub,2013-10-11 03:37:00,
2013-10-10 22:42:00,63.1,52.0,29.87,West,265,0.0,1.0,67,0.00,,,0.00,meteohub,2013-10-11 03:42:00,
2013-10-10 22:47:00,63.1,52.0,29.87,SW,234,0.0,2.0,67,0.00,,,0.00,meteohub,2013-10-11 03:47:00,
2013-10-10 22:52:00,63.0,52.2,29.87,SW,234,0.0,2.0,68,0.00,,,0.00,meteohub,2013-10-11 03:52:00,
2013-10-10 22:57:00,63.0,52.2,29.87,SW,233,0.0,2.0,68,0.00,,,0.00,meteohub,2013-10-11 03:57:00,
2013-10-10 23:01:00,63.0,52.2,29.87,SSE,161,3.0,3.0,68,0.00,,,0.00,meteohub,2013-10-11 04:01:00,
2013-10-10 23:02:00,63.0,52.2,29.87,SSE,161,0.0,1.0,68,0.00,,,0.00,meteohub,2013-10-11 04:02:00,
2013-10-10 23:03:00,63.0,52.2,29.86,SSE,160,0.0,1.0,68,0.00,,,0.00,meteohub,2013-10-11 04:03:00,
2013-10-10 23:08:00,63.0,52.2,29.86,SSE,160,0.0,5.0,68,0.00,,,0.00,meteohub,2013-10-11 04:08:00,
2013-10-10 23:13:00,62.8,52.0,29.87,SSE,161,0.0,5.0,68,0.00,,,0.00,meteohub,2013-10-11 04:13:00,
2013-10-10 23:18:00,62.8,52.0,29.86,SSE,161,0.0,5.0,68,0.00,,,0.00,meteohub,2013-10-11 04:18:00,
2013-10-10 23:21:00,62.8,52.0,29.86,SSE,161,0.0,1.0,68,0.00,,,0.00,meteohub,2013-10-11 04:21:00,
2013-10-10 23:26:00,62.6,52.0,29.86,SSE,160,0.0,1.0,68,0.00,,,0.00,meteohub,2013-10-11 04:26:00,
2013-10-10 23:31:00,62.4,51.8,29.86,SSE,161,0.0,1.0,68,0.00,,,0.00,meteohub,2013-10-11 04:31:00,
2013-10-10 23:36:00,62.4,51.8,29.86,SSE,161,0.0,1.0,68,0.00,,,0.00,meteohub,2013-10-11 04:36:00,
2013-10-10 23:41:00,62.2,52.0,29.86,SSE,161,0.0,1.0,69,0.00,,,0.00,meteohub,2013-10-11 04:41:00,
2013-10-10 23:46:00,62.2,52.0,29.86,SSE,161,0.0,1.0,69,0.00,,,0.00,meteohub,2013-10-11 04:46:00,
2013-10-10 23:51:00,62.2,52.0,29.86,SSE,160,0.0,2.0,69,0.00,,,0.00,meteohub,2013-10-11 04:51:00,
2013-10-10 23:56:00,62.1,51.8,29.86,SSE,161,0.0,2.0,69,0.00,,,0.00,meteohub,2013-10-11 04:56:00,